Latest Weather Observations for Parawa West

IDS60801

Issued at 11:31 am CST Wednesday 5 August 2015 (issued every 30 minutes, with the page automatically refreshed every 10 minutes)

About weather observations | Map of weather stations | Latest weather observations for SA | Other Formats
Station Details ID: 023875 Name: SECOND VALLEY FOREST AWS Lat: -35.57 Lon: 138.29 Height: 341.0 m
Data from the previous 72 hours. | See also: Recent months at Parawa West
Date/Time
CST
Temp
°C
App
Temp
°C
Dew
Point
Rel
Hum
%
Delta-T
°C
Wind Press
QNH
hPa
Press
MSL
hPa
Rain
since 9 am
mm
Dir
 
Spd
km/h
Gust
km/h
Spd
kts
Gust
kts
05/11:30am 8.6 3.8 7.2 91 0.7 SSW 22 33 12 18 1021.3 1021.6 1.0
05/11:00am 8.7 4.8 7.3 91 0.7 SW 17 28 9 15 1021.3 1021.6 1.0
05/10:30am 8.2 3.9 6.8 91 0.7 SW 19 30 10 16 1021.1 1021.4 0.8
05/10:00am 7.6 3.2 6.7 94 0.4 SW 19 30 10 16 1021.0 1021.3 0.8
05/09:30am 8.0 3.2 5.8 86 1.0 SW 20 32 11 17 1020.7 1020.9 0.2
05/09:00am 8.5 5.2 6.5 87 0.9 SW 13 22 7 12 1020.5 1020.7 4.6
05/08:30am 7.4 2.3 5.9 90 0.7 SW 22 35 12 19 1020.1 1020.4 4.6
05/08:00am 7.9 3.9 6.8 93 0.5 SW 17 32 9 17 1019.9 1020.2 4.6
05/07:30am 7.6 3.6 6.7 94 0.4 WSW 17 28 9 15 1019.6 1019.9 4.6
05/07:00am 7.8 3.3 6.9 94 0.4 SW 20 35 11 19 1019.5 1019.8 4.6
05/06:30am 7.6 3.2 6.7 94 0.4 WSW 19 28 10 15 1019.3 1019.6 4.2
05/06:00am 7.7 2.4 6.6 93 0.5 WSW 24 37 13 20 1019.2 1019.5 4.2
05/05:30am 7.6 2.7 6.7 94 0.4 WSW 22 30 12 16 1019.1 1019.4 4.0
05/05:00am 7.7 3.4 7.0 95 0.3 WSW 19 37 10 20 1019.2 1019.5 4.0
05/04:30am 7.6 2.7 7.0 96 0.3 W 22 30 12 16 1019.0 1019.3 4.0
05/04:00am 7.6 2.7 6.9 95 0.3 W 22 30 12 16 1019.1 1019.4 4.0
05/03:30am 7.5 3.0 6.8 95 0.3 W 20 28 11 15 1019.3 1019.6 3.8
05/03:00am 7.5 2.9 6.6 94 0.4 W 20 28 11 15 1019.4 1019.7 3.2
05/02:30am 7.4 2.8 6.3 93 0.5 W 20 30 11 16 1019.6 1019.9 3.0
05/02:00am 7.4 3.0 6.5 94 0.4 W 19 30 10 16 1019.9 1020.2 3.0
05/01:30am 7.3 2.8 6.2 93 0.5 W 19 33 10 18 1020.1 1020.4 3.0
05/01:00am 7.5 3.1 6.4 93 0.5 W 19 28 10 15 1020.4 1020.6 3.0
05/12:30am 7.7 2.2 6.0 89 0.8 WSW 24 32 13 17 1020.6 1020.8 3.0
05/12:00am 7.8 2.7 6.1 89 0.8 W 22 33 12 18 1020.9 1021.2 3.0
 
Date/Time
CST
Temp
°C
App
Temp
°C
Dew
Point
Rel
Hum
%
Delta-T
°C
Wind Press
QNH
hPa
Press
MSL
hPa
Rain
since 9 am
mm
Dir
 
Spd
km/h
Gust
km/h
Spd
kts
Gust
kts
04/11:30pm 7.8 3.2 6.3 90 0.7 W 20 30 11 16 1021.1 1021.4 3.0
04/11:00pm 8.1 3.2 6.7 91 0.7 W 22 33 12 18 1021.3 1021.6 3.0
04/10:30pm 8.5 3.4 7.6 94 0.4 W 24 41 13 22 1021.2 1021.5 3.0
04/10:00pm 8.6 3.5 7.8 95 0.4 W 24 33 13 18 1021.4 1021.7 3.0
04/09:30pm 9.0 4.8 8.2 95 0.4 WNW 20 33 11 18 1021.4 1021.7 2.2
04/09:00pm 9.0 4.9 7.9 93 0.5 WNW 19 30 10 16 1021.7 1022.0 1.6
04/08:30pm 8.8 4.7 7.9 94 0.4 WNW 19 35 10 19 1021.6 1021.9 1.4
04/08:00pm 8.5 4.7 7.6 94 0.4 WNW 17 26 9 14 1021.8 1022.1 1.4
04/07:30pm 7.9 4.3 6.8 93 0.5 WNW 15 24 8 13 1022.2 1022.5 1.4
04/07:00pm 8.1 4.2 6.9 92 0.6 WNW 17 24 9 13 1022.2 1022.5 1.4
04/06:30pm 8.1 4.1 6.7 91 0.7 WNW 17 24 9 13 1022.3 1022.6 1.4
04/06:00pm 8.5 4.5 6.6 88 0.9 WNW 17 30 9 16 1022.4 1022.7 1.4
04/05:30pm 8.3 5.1 6.8 90 0.7 NW 13 24 7 13 1022.3 1022.6 1.4
04/05:00pm 8.0 4.7 6.5 90 0.7 WNW 13 17 7 9 1022.4 1022.7 1.4
04/04:30pm 8.3 4.7 6.6 89 0.8 WNW 15 26 8 14 1022.8 1023.1 1.2
04/04:00pm 8.6 5.5 7.1 90 0.7 WNW 13 19 7 10 1023.0 1023.3 1.2
04/03:30pm 8.1 4.5 6.9 92 0.6 WNW 15 20 8 11 1023.1 1023.4 1.2
04/03:00pm 8.2 3.7 7.1 93 0.5 W 20 32 11 17 1023.5 1023.8 1.2
04/02:30pm 8.5 5.0 7.3 92 0.6 WNW 15 24 8 13 1023.5 1023.8 0.4
04/02:00pm 8.2 4.0 7.3 94 0.4 WNW 19 30 10 16 1023.7 1024.0 0.4
04/01:30pm 8.6 4.5 6.4 86 1.0 NW 17 28 9 15 1023.8 1024.1 0.0
04/01:00pm 8.9 4.8 6.2 83 1.3 NW 17 26 9 14 1024.4 1024.7 0.0
04/12:30pm 8.9 4.7 5.6 80 1.5 WNW 17 24 9 13 1024.9 1025.2 0.0
04/12:00pm 9.2 5.4 5.9 80 1.5 W 15 22 8 12 1025.4 1025.7 0.0
04/11:30am 9.2 5.4 5.6 78 1.7 WNW 15 26 8 14 1025.7 1026.1 0.0
04/11:00am 9.4 5.1 5.4 76 1.8 W 17 26 9 14 1025.9 1026.3 0.0
04/10:30am 8.6 6.0 6.1 84 1.2 W 9 13 5 7 1026.1 1026.5 0.0
04/10:00am 7.9 4.6 6.2 89 0.8 W 13 20 7 11 1026.2 1026.6 0.0
04/09:30am 7.5 4.2 6.3 92 0.6 W 13 22 7 12 1026.3 1026.7 0.0
04/09:00am 6.9 4.3 6.2 95 0.3 W 9 15 5 8 1026.2 1026.6 1.4
04/08:30am 6.2 3.5 5.5 95 0.3 WNW 9 13 5 7 1026.1 1026.5 1.4
04/08:00am 5.5 3.0 4.8 95 0.3 WNW 7 11 4 6 1026.0 1026.4 1.4
04/07:30am 5.2 2.3 4.5 95 0.3 W 9 13 5 7 1025.8 1026.2 1.4
04/07:00am 5.0 2.0 4.3 95 0.3 W 9 13 5 7 1025.7 1026.1 1.4
04/06:30am 5.1 2.2 4.4 95 0.3 W 9 13 5 7 1025.5 1025.8 1.0
04/06:00am 5.1 2.7 4.4 95 0.3 WSW 6 7 3 4 1025.5 1025.8 1.0
04/05:30am 5.2 2.7 4.5 95 0.3 WSW 7 11 4 6 1025.5 1025.8 1.0
04/05:00am 4.8 1.4 4.1 95 0.3 W 11 15 6 8 1025.5 1025.8 1.0
04/04:30am 5.1 2.5 4.2 94 0.4 WSW 7 9 4 5 1025.4 1025.7 1.0
04/04:00am 5.7 2.8 4.8 94 0.4 W 9 13 5 7 1025.5 1025.8 1.0
04/03:30am 5.3 2.0 4.3 93 0.4 W 11 15 6 8 1025.6 1025.9 1.0
04/03:00am 5.1 2.5 4.2 94 0.4 W 7 11 4 6 1025.7 1026.1 1.0
04/02:30am 5.5 3.0 4.5 93 0.4 WSW 7 13 4 7 1025.8 1026.2 1.0
04/02:00am 5.4 2.4 4.2 92 0.5 W 9 13 5 7 1025.9 1026.3 1.0
04/01:30am 5.2 3.2 4.2 93 0.4 WSW 4 7 2 4 1025.9 1026.3 1.0
04/01:00am 5.7 3.3 4.5 92 0.5 WSW 6 11 3 6 1026.2 1026.6 1.0
04/12:30am 5.8 2.9 4.4 91 0.6 W 9 13 5 7 1026.1 1026.5 0.8
04/12:00am 5.9 3.0 4.4 90 0.7 W 9 17 5 9 1026.3 1026.7 0.8
 
Date/Time
CST
Temp
°C
App
Temp
°C
Dew
Point
Rel
Hum
%
Delta-T
°C
Wind Press
QNH
hPa
Press
MSL
hPa
Rain
since 9 am
mm
Dir
 
Spd
km/h
Gust
km/h
Spd
kts
Gust
kts
03/11:30pm 5.5 2.1 3.8 89 0.7 W 11 13 6 7 1026.3 1026.7 0.8
03/11:00pm 5.9 2.9 3.9 87 0.9 WSW 9 11 5 6 1026.3 1026.7 0.8
03/10:30pm 5.7 3.1 4.0 89 0.7 W 7 11 4 6 1026.2 1026.6 0.8
03/10:00pm 6.1 3.5 4.4 89 0.7 SW 7 9 4 5 1026.4 1026.8 0.8
03/09:30pm 5.6 2.9 3.8 88 0.8 SW 7 11 4 6 1026.4 1026.8 0.8
03/09:00pm 5.8 3.4 4.3 90 0.6 SSW 6 11 3 6 1026.6 1026.9 0.8
03/08:30pm 5.8 2.5 4.3 90 0.6 SSW 11 15 6 8 1026.6 1026.9 0.8
03/08:00pm 6.4 2.7 4.6 88 0.8 SSW 13 19 7 10 1026.6 1026.9 0.8
03/07:30pm 6.6 4.3 4.9 89 0.8 SW 6 9 3 5 1026.2 1026.6 0.8
03/07:00pm 6.5 4.0 4.5 87 0.9 SW 7 11 4 6 1026.1 1026.5 0.8
03/06:30pm 6.6 3.6 4.1 84 1.1 SW 9 13 5 7 1025.9 1026.3 0.8
03/06:00pm 6.3 3.4 4.5 88 0.8 SSW 9 13 5 7 1025.7 1026.1 0.8
03/05:30pm 6.9 4.4 4.6 85 1.0 SW 7 11 4 6 1025.6 1025.9 0.8
03/05:00pm 7.4 4.1 4.7 83 1.2 SSW 11 17 6 9 1025.4 1025.7 0.8
03/04:30pm 7.5 3.5 5.0 84 1.1 SSW 15 24 8 13 1025.1 1025.4 0.8
03/04:00pm 8.2 3.7 7.0 92 0.6 S 20 28 11 15 1024.9 1025.2 0.8
03/03:30pm 8.1 4.7 5.9 86 1.0 SW 13 20 7 11 1024.8 1025.1 0.8
03/03:00pm 8.4 4.2 5.9 84 1.2 SSW 17 26 9 14 1024.5 1024.8 0.8
03/02:30pm 8.2 4.5 6.3 88 0.9 SW 15 28 8 15 1024.3 1024.6 0.8
03/02:00pm 8.2 4.3 5.5 83 1.2 SSW 15 22 8 12 1024.3 1024.6 0.6
03/01:30pm 7.5 3.4 6.1 91 0.6 SSW 17 24 9 13 1024.5 1024.8 0.6
03/01:00pm 8.9 4.1 5.8 81 1.4 SSW 20 26 11 14 1024.5 1024.8 0.2
03/12:30pm 8.7 3.7 4.5 75 1.9 SSW 20 28 11 15 1024.5 1024.8 0.2
03/12:00pm 9.2 4.5 5.9 80 1.5 SSW 20 32 11 17 1024.6 1024.9 0.2
03/11:30am 9.6 5.0 6.7 82 1.4 SSW 20 32 11 17 1024.7 1025.0 0.2
03/11:00am 7.4 2.6 5.4 87 0.9 SW 20 32 11 17 1025.0 1025.3 0.2
03/10:30am 8.9 5.6 6.2 83 1.3 SW 13 30 7 16 1024.8 1025.1 0.2
03/10:00am 8.2 4.4 6.0 86 1.0 SW 15 26 8 14 1024.6 1024.9 0.2
03/09:30am 7.7 4.0 6.5 92 0.6 SW 15 26 8 14 1024.1 1024.4 0.2
03/09:00am 7.9 4.7 6.8 93 0.5 SW 13 20 7 11 1023.9 1024.2 2.2
03/08:30am 7.3 4.4 6.4 94 0.4 SW 11 20 6 11 1023.7 1024.0 2.2
03/08:00am 7.4 4.1 6.5 94 0.4 WSW 13 20 7 11 1023.1 1023.4 2.2
03/07:30am 7.2 3.1 6.3 94 0.4 SW 17 30 9 16 1022.8 1023.1 2.2
03/07:00am 7.1 3.3 6.0 93 0.5 WSW 15 20 8 11 1022.3 1022.6 2.0
03/06:30am 7.4 2.8 6.3 93 0.5 WSW 20 37 11 20 1022.2 1022.5 2.0
03/06:00am 7.7 3.3 6.6 93 0.5 WSW 19 28 10 15 1021.7 1022.0 1.4
03/05:30am 7.7 3.1 6.6 93 0.5 WSW 20 32 11 17 1021.5 1021.8 1.4
03/05:00am 7.5 2.9 6.6 94 0.4 WSW 20 35 11 19 1021.5 1021.8 1.4
03/04:30am 7.3 3.2 6.2 93 0.5 W 17 24 9 13 1021.3 1021.6 1.2
03/04:00am 7.8 3.0 5.8 87 0.9 W 20 35 11 19 1021.0 1021.3 0.8
03/03:30am 7.7 3.0 6.2 90 0.7 W 20 32 11 17 1021.0 1021.3 0.8
03/03:00am 7.9 3.5 6.4 90 0.7 W 19 28 10 15 1021.3 1021.6 0.8
03/02:30am 8.1 3.7 6.6 90 0.7 W 19 30 10 16 1021.3 1021.6 0.8
03/02:00am 8.2 3.3 7.0 92 0.6 WSW 22 37 12 20 1021.1 1021.4 0.8
03/01:30am 8.2 4.7 7.1 93 0.5 WSW 15 26 8 14 1021.0 1021.3 0.8
03/01:00am 8.4 4.1 7.2 92 0.6 W 19 30 10 16 1020.9 1021.2 0.8
03/12:30am 8.5 4.1 7.3 92 0.6 W 20 33 11 18 1021.0 1021.3 0.6
03/12:00am 8.7 5.1 6.8 88 0.9 W 15 24 8 13 1021.0 1021.3 0.4
 
Date/Time
CST
Temp
°C
App
Temp
°C
Dew
Point
Rel
Hum
%
Delta-T
°C
Wind Press
QNH
hPa
Press
MSL
hPa
Rain
since 9 am
mm
Dir
 
Spd
km/h
Gust
km/h
Spd
kts
Gust
kts
02/11:30pm 8.2 4.9 6.5 89 0.8 WNW 13 22 7 12 1020.9 1021.2 0.4
02/11:00pm 8.4 4.7 6.4 87 0.9 W 15 28 8 15 1020.9 1021.2 0.4
02/10:30pm 8.9 4.4 6.3 84 1.2 W 19 30 10 16 1021.0 1021.3 0.4
02/10:00pm 8.8 5.4 5.7 81 1.4 WNW 13 24 7 13 1021.0 1021.3 0.4
02/09:30pm 8.6 4.4 5.7 82 1.3 W 17 26 9 14 1020.9 1021.2 0.4
02/09:00pm 8.7 4.5 5.6 81 1.4 WNW 17 28 9 15 1020.8 1021.0 0.4
02/08:30pm 8.5 3.7 5.4 81 1.4 W 20 35 11 19 1020.6 1020.8 0.4
02/08:00pm 8.7 5.1 4.9 77 1.7 WNW 13 24 7 13 1020.6 1020.8 0.4
02/07:30pm 8.8 5.1 4.6 75 1.9 WNW 13 22 7 12 1020.2 1020.5 0.4
02/07:00pm 8.8 5.1 4.4 74 2.0 WNW 13 20 7 11 1020.0 1020.3 0.4
02/06:30pm 8.8 3.8 4.6 75 1.9 W 20 32 11 17 1019.8 1020.1 0.4
02/06:00pm 9.0 5.3 6.4 84 1.2 WNW 15 28 8 15 1019.2 1019.5 0.4
02/05:30pm 9.4 5.4 6.5 82 1.4 W 17 24 9 13 1018.9 1019.2 0.4
02/05:00pm 10.2 6.6 6.9 80 1.6 WNW 15 24 8 13 1018.6 1018.9 0.4
02/04:30pm 10.1 6.6 7.3 83 1.4 WNW 15 24 8 13 1018.4 1018.7 0.4
02/04:00pm 10.5 5.2 6.8 78 1.8 WNW 24 37 13 20 1018.2 1018.4 0.4
02/03:30pm 9.9 6.0 7.0 82 1.4 W 17 32 9 17 1018.3 1018.5 0.4
02/03:00pm 9.9 5.3 8.0 88 0.9 WNW 22 37 12 20 1018.2 1018.4 0.0
02/02:30pm 10.6 5.6 8.0 84 1.3 W 24 35 13 19 1017.8 1018.0 0.0
02/02:00pm 9.9 4.1 7.8 87 1.0 W 28 44 15 24 1017.8 1018.0 0.0
02/01:30pm 10.2 4.3 7.4 83 1.4 WNW 28 43 15 23 1017.6 1017.8 0.0
02/01:00pm 10.3 5.1 7.4 82 1.4 WNW 24 41 13 22 1017.7 1017.9 0.0
02/12:30pm 9.5 4.4 7.8 89 0.8 WNW 24 43 13 23 1018.2 1018.4 0.0
02/12:00pm 10.2 4.9 6.7 79 1.7 WNW 24 39 13 21 1018.2 1018.4 0.0

Other Formats:

Comma delimited format used in spreadsheet applications
http://www.bom.gov.au/fwo/IDS60801/IDS60801.94811.axf

JavaScript Object Notation format (JSON) in row-major order
http://www.bom.gov.au/fwo/IDS60801/IDS60801.94811.json